Time;durP1;ratioP1;P1;durP2;ratioP2;P2;SDS_P1;SDS_P2;PMS_P1;PMS_P2;Temp;Humidity;BMP_temperature;BMP_pressure;BME280_temperature;BME280_humidity;BME280_pressure;Samples;Min_cycle;Max_cycle;Signal;HPM_P1;HPM_P2
2022/10/04 00:00:36;;;;;;;4.10;1.70;;;17.70;91.80;;;;;;5014184;28;20208;-69
2022/10/04 00:03:21;;;;;;;4.20;2.10;;;17.70;91.90;;;;;;4997722;28;20315;-69
2022/10/04 00:05:55;;;;;;;2.78;2.10;;;17.70;91.80;;;;;;5013907;28;20184;-70
2022/10/04 00:08:41;;;;;;;2.97;1.98;;;17.70;91.80;;;;;;4985904;28;20177;-69
2022/10/04 00:11:19;;;;;;;3.35;1.75;;;17.70;92.10;;;;;;4978359;28;20221;-69
2022/10/04 00:13:56;;;;;;;3.30;2.08;;;17.70;91.70;;;;;;4978173;28;20179;-69
2022/10/04 00:16:39;;;;;;;2.47;1.90;;;17.70;91.70;;;;;;4978269;28;20216;-69
2022/10/04 00:19:14;;;;;;;4.00;1.88;;;17.70;91.60;;;;;;4994371;28;20256;-69
2022/10/04 00:21:55;;;;;;;2.63;1.60;;;17.70;91.70;;;;;;4994307;28;20427;-69
2022/10/04 00:24:33;;;;;;;5.15;2.40;;;17.70;91.50;;;;;;4994425;28;20192;-69
2022/10/04 00:27:21;;;;;;;1.90;1.70;;;17.70;91.50;;;;;;4978012;28;20188;-69
2022/10/04 00:30:02;;;;;;;2.75;1.90;;;17.70;91.50;;;;;;4977882;28;20225;-69
2022/10/04 00:32:40;;;;;;;3.03;1.77;;;17.70;91.60;;;;;;4977844;28;20188;-69
2022/10/04 00:35:24;;;;;;;2.55;1.77;;;17.70;91.50;;;;;;4977995;28;20188;-69
2022/10/04 00:38:13;;;;;;;3.33;1.73;;;17.70;91.50;;;;;;4994050;28;20188;-69
2022/10/04 00:40:56;;;;;;;2.42;1.80;;;17.70;91.50;;;;;;4977507;28;20232;-69
2022/10/04 00:43:37;;;;;;;2.47;1.73;;;17.70;91.50;;;;;;5026751;28;20204;-69
2022/10/04 00:46:12;;;;;;;3.55;1.75;;;17.70;91.50;;;;;;5026008;28;20614;-69
2022/10/04 00:48:54;;;;;;;2.58;1.80;;;17.70;91.30;;;;;;4994788;28;20168;-69
2022/10/04 00:51:40;;;;;;;3.60;2.03;;;17.70;91.40;;;;;;4993912;28;20223;-69
2022/10/04 00:54:16;;;;;;;2.38;1.60;;;17.70;91.30;;;;;;4993703;28;20220;-69
2022/10/04 00:56:51;;;;;;;3.45;2.13;;;17.70;91.40;;;;;;4994805;28;20176;-69
2022/10/04 00:59:43;;;;;;;3.03;1.77;;;17.70;91.40;;;;;;4977179;28;20279;-69
2022/10/04 01:02:17;;;;;;;4.00;1.98;;;17.70;91.30;;;;;;4994832;28;20205;-69
2022/10/04 01:05:14;;;;;;;3.63;1.70;;;17.70;91.20;;;;;;4993473;28;20204;-69
2022/10/04 01:07:51;;;;;;;2.10;1.65;;;17.70;91.00;;;;;;5009632;28;20189;-69
2022/10/04 01:10:25;;;;;;;3.58;1.70;;;17.70;91.20;;;;;;4993219;28;20600;-69
2022/10/04 01:13:16;;;;;;;3.10;1.95;;;17.70;91.10;;;;;;4977002;28;20633;-69
2022/10/04 01:16:08;;;;;;;3.08;1.90;;;17.70;91.00;;;;;;4976852;28;20189;-69
2022/10/04 01:18:35;;;;;;;2.08;1.70;;;17.70;90.90;;;;;;4993054;28;20185;-69
2022/10/04 01:21:07;;;;;;;1.83;1.73;;;17.70;91.00;;;;;;4977023;28;20228;-69
2022/10/04 01:23:45;;;;;;;1.90;1.75;;;17.70;91.00;;;;;;4994264;28;20181;-69
2022/10/04 01:26:29;;;;;;;1.65;1.40;;;17.70;90.80;;;;;;4993052;28;20242;-69
2022/10/04 01:29:16;;;;;;;1.70;1.60;;;17.70;90.80;;;;;;5009313;28;20275;-69
2022/10/04 01:31:47;;;;;;;1.83;1.70;;;17.70;90.90;;;;;;4992823;28;20212;-69
2022/10/04 01:34:18;;;;;;;2.83;1.88;;;17.60;90.80;;;;;;4993236;28;20662;-69
2022/10/04 01:36:46;;;;;;;1.92;1.67;;;17.70;90.80;;;;;;4992944;28;20181;-69
2022/10/04 01:39:13;;;;;;;2.00;1.60;;;17.70;90.70;;;;;;4976261;28;20192;-69
2022/10/04 01:42:11;;;;;;;2.53;1.70;;;17.60;90.70;;;;;;4976323;28;20221;-69
2022/10/04 01:45:34;;;;;;;2.20;1.77;;;17.60;90.60;;;;;;4992530;28;20188;-69
2022/10/04 01:48:07;;;;;;;2.00;1.90;;;17.60;90.70;;;;;;4992627;28;20271;-69
2022/10/04 01:50:55;;;;;;;1.83;1.58;;;17.70;90.60;;;;;;4993921;28;20209;-69
2022/10/04 01:53:40;;;;;;;2.70;1.80;;;17.60;90.50;;;;;;4976242;28;20185;-69
2022/10/04 01:56:22;;;;;;;3.15;2.00;;;17.70;90.60;;;;;;4992780;28;20185;-69
2022/10/04 01:59:01;;;;;;;2.53;1.65;;;17.60;90.40;;;;;;4975205;28;20272;-69
2022/10/04 02:02:06;;;;;;;1.85;1.50;;;17.60;90.50;;;;;;5024926;28;20235;-69
2022/10/04 02:04:38;;;;;;;3.30;1.52;;;17.60;90.50;;;;;;4992506;28;20224;-69
2022/10/04 02:07:12;;;;;;;3.33;1.83;;;17.60;90.50;;;;;;4992275;28;20192;-69
2022/10/04 02:09:43;;;;;;;2.20;1.70;;;17.60;90.40;;;;;;4992158;28;20169;-69
2022/10/04 02:14:51;;;;;;;2.92;1.73;;;17.60;90.30;;;;;;5071328;28;20213;-66
2022/10/04 02:17:25;;;;;;;2.90;1.70;;;17.60;90.30;;;;;;5054744;28;20178;-66
2022/10/04 02:19:52;;;;;;;1.98;1.77;;;17.60;90.30;;;;;;5071160;28;20212;-66
2022/10/04 02:22:19;;;;;;;2.80;1.35;;;17.60;90.30;;;;;;5057048;28;20225;-66
2022/10/04 02:24:48;;;;;;;2.08;1.60;;;17.60;90.30;;;;;;5018273;28;20214;-66
2022/10/04 02:27:15;;;;;;;1.60;1.38;;;17.60;90.30;;;;;;5017106;28;20198;-66
2022/10/04 02:29:41;;;;;;;1.92;1.65;;;17.60;90.30;;;;;;5029931;28;20248;-66
2022/10/04 02:34:55;;;;;;;1.75;1.50;;;17.60;90.10;;;;;;5071286;28;20178;-66
2022/10/04 02:37:27;;;;;;;2.20;2.00;;;17.60;90.10;;;;;;5054469;28;20190;-66
2022/10/04 02:40:07;;;;;;;2.00;1.75;;;17.60;90.10;;;;;;5037592;28;20219;-66
2022/10/04 02:43:05;;;;;;;1.83;1.50;;;17.60;90.00;;;;;;5054413;28;20668;-65
2022/10/04 02:45:52;;;;;;;1.65;1.30;;;17.60;90.00;;;;;;5054430;28;20549;-66
2022/10/04 02:48:43;;;;;;;2.47;1.63;;;17.60;90.10;;;;;;5054157;28;20637;-66
2022/10/04 02:51:24;;;;;;;1.75;1.50;;;17.60;90.10;;;;;;5037947;28;20209;-66
2022/10/04 02:54:18;;;;;;;1.90;1.70;;;17.60;90.00;;;;;;5054333;28;20178;-66
2022/10/04 02:56:44;;;;;;;2.28;1.52;;;17.60;90.00;;;;;;5037620;28;20196;-66
2022/10/04 02:59:16;;;;;;;1.60;1.50;;;17.60;90.00;;;;;;5037334;28;20190;-66
2022/10/04 03:01:54;;;;;;;2.13;1.50;;;17.60;89.90;;;;;;5054133;28;20218;-66
2022/10/04 03:04:27;;;;;;;1.58;1.48;;;17.60;89.70;;;;;;5054402;28;20181;-66
2022/10/04 03:06:54;;;;;;;1.42;1.33;;;17.60;89.70;;;;;;5054478;28;20203;-66
2022/10/04 03:09:23;;;;;;;2.28;1.50;;;17.60;89.70;;;;;;5055927;28;20188;-66
2022/10/04 03:11:50;;;;;;;1.73;1.35;;;17.60;89.70;;;;;;5041827;28;20217;-66
2022/10/04 03:14:24;;;;;;;2.00;1.48;;;17.60;89.60;;;;;;5058087;28;20197;-66
2022/10/04 03:16:53;;;;;;;2.72;1.73;;;17.60;89.60;;;;;;5058055;28;20170;-66
2022/10/04 03:19:23;;;;;;;1.67;1.58;;;17.60;89.50;;;;;;5057710;28;20193;-66
2022/10/04 03:21:56;;;;;;;1.50;1.40;;;17.60;89.50;;;;;;5057931;28;20213;-66
2022/10/04 03:24:33;;;;;;;3.00;1.73;;;17.60;89.30;;;;;;5041338;28;20204;-66
2022/10/04 03:27:06;;;;;;;1.75;1.42;;;17.60;89.20;;;;;;5058169;28;20173;-66
2022/10/04 03:29:33;;;;;;;1.95;1.48;;;17.60;89.20;;;;;;5057768;28;20237;-66
2022/10/04 03:32:03;;;;;;;2.13;1.80;;;17.50;89.10;;;;;;5041015;28;20275;-66
2022/10/04 03:34:43;;;;;;;1.95;1.75;;;17.60;89.20;;;;;;5075682;28;20195;-66
2022/10/04 03:37:15;;;;;;;1.60;1.50;;;17.60;89.20;;;;;;5041110;28;20178;-66
2022/10/04 03:39:53;;;;;;;1.92;1.63;;;17.50;89.00;;;;;;5037766;28;20175;-66
2022/10/04 03:42:24;;;;;;;1.60;1.50;;;17.50;88.80;;;;;;5037811;28;20256;-66
2022/10/04 03:44:55;;;;;;;2.70;1.23;;;17.60;88.90;;;;;;5021205;28;20198;-66
2022/10/04 03:47:31;;;;;;;1.60;1.50;;;17.60;88.80;;;;;;5054271;28;20178;-66
2022/10/04 03:50:17;;;;;;;2.20;1.60;;;17.60;88.90;;;;;;5055277;28;20179;-66
2022/10/04 03:52:53;;;;;;;2.38;1.60;;;17.50;88.40;;;;;;5037609;28;20189;-66
2022/10/04 03:55:24;;;;;;;2.47;1.60;;;17.60;88.50;;;;;;5054195;28;20232;-66
2022/10/04 03:57:51;;;;;;;2.15;1.60;;;17.50;88.60;;;;;;5020857;28;20179;-66
2022/10/04 04:00:18;;;;;;;2.03;1.60;;;17.50;88.60;;;;;;5037111;28;20202;-66
2022/10/04 04:02:57;;;;;;;1.77;1.67;;;17.50;88.60;;;;;;5037269;28;20280;-66
2022/10/04 04:05:53;;;;;;;1.90;1.70;;;17.60;88.60;;;;;;5037313;28;20174;-66
2022/10/04 04:08:32;;;;;;;1.75;1.65;;;17.60;88.70;;;;;;5035583;28;20230;-66
2022/10/04 04:11:03;;;;;;;2.33;1.77;;;17.60;88.40;;;;;;5020565;28;20202;-66
2022/10/04 04:13:50;;;;;;;2.53;1.80;;;17.50;88.30;;;;;;5037159;28;20206;-66
2022/10/04 04:16:24;;;;;;;2.33;1.77;;;17.50;88.10;;;;;;5037047;28;20666;-66
2022/10/04 04:18:53;;;;;;;2.20;1.98;;;17.50;88.20;;;;;;5037029;28;20178;-66
2022/10/04 04:21:23;;;;;;;2.00;1.90;;;17.50;88.30;;;;;;5052613;28;20214;-66
2022/10/04 04:24:04;;;;;;;2.28;1.80;;;17.50;88.20;;;;;;5053692;28;20193;-66
2022/10/04 04:26:46;;;;;;;2.20;1.80;;;17.60;88.80;;;;;;5020342;28;20193;-66
2022/10/04 04:29:42;;;;;;;2.90;1.90;;;17.50;88.60;;;;;;5049659;28;20174;-66
2022/10/04 04:32:24;;;;;;;2.60;1.70;;;17.50;88.60;;;;;;5016967;28;20202;-66
2022/10/04 04:34:56;;;;;;;1.90;1.70;;;17.50;88.60;;;;;;5016930;28;20198;-66
2022/10/04 04:37:23;;;;;;;2.03;1.85;;;17.60;89.10;;;;;;5016942;28;20184;-66
2022/10/04 04:39:54;;;;;;;2.78;1.58;;;17.50;89.10;;;;;;5000388;28;20206;-66
2022/10/04 04:42:33;;;;;;;2.45;1.90;;;17.50;89.40;;;;;;5016667;28;20257;-66
2022/10/04 04:45:24;;;;;;;2.63;1.50;;;17.50;90.00;;;;;;5000450;28;20175;-67
2022/10/04 04:47:56;;;;;;;2.30;2.00;;;17.60;90.00;;;;;;5016595;28;20237;-67
2022/10/04 04:50:34;;;;;;;2.30;2.00;;;17.50;90.00;;;;;;5034677;28;20194;-68
2022/10/04 04:53:21;;;;;;;3.33;2.17;;;17.50;90.00;;;;;;4999890;28;20278;-66
2022/10/04 04:55:54;;;;;;;2.97;1.77;;;17.50;90.10;;;;;;5016479;28;20187;-66
2022/10/04 04:58:31;;;;;;;4.90;2.00;;;17.50;90.40;;;;;;5016703;28;20226;-65
2022/10/04 05:01:05;;;;;;;7.40;2.20;;;17.50;90.60;;;;;;5016427;28;20207;-66
2022/10/04 05:03:32;;;;;;;4.72;2.25;;;17.60;91.40;;;;;;4999899;28;20206;-67
2022/10/04 05:06:03;;;;;;;4.30;2.45;;;17.50;91.70;;;;;;4999867;28;20172;-66
2022/10/04 05:08:32;;;;;;;6.95;1.95;;;17.50;92.20;;;;;;5032570;28;20183;-66
2022/10/04 05:11:08;;;;;;;6.50;2.33;;;17.50;92.40;;;;;;5016313;28;20214;-66
2022/10/04 05:13:49;;;;;;;5.82;1.90;;;17.50;92.50;;;;;;4999556;28;20701;-66
2022/10/04 05:16:36;;;;;;;7.25;2.30;;;17.60;92.20;;;;;;5015601;28;20576;-67
2022/10/04 05:19:18;;;;;;;3.40;1.90;;;17.50;92.00;;;;;;5015518;28;20214;-66
2022/10/04 05:21:46;;;;;;;6.28;2.30;;;17.50;91.60;;;;;;5015620;28;20215;-66
2022/10/04 05:24:29;;;;;;;7.40;2.10;;;17.50;91.40;;;;;;5015448;28;20191;-66
2022/10/04 05:27:02;;;;;;;4.95;2.17;;;17.50;91.40;;;;;;4998604;28;20191;-66
2022/10/04 05:29:38;;;;;;;5.20;1.95;;;17.50;91.40;;;;;;4998999;28;20205;-66
2022/10/04 05:32:12;;;;;;;4.75;1.80;;;17.50;91.20;;;;;;5035455;28;20698;-67
2022/10/04 05:34:43;;;;;;;3.53;2.25;;;17.50;91.10;;;;;;5015292;28;20269;-66
2022/10/04 05:37:49;;;;;;;4.75;2.20;;;17.50;91.10;;;;;;5015326;28;20183;-66
2022/10/04 05:40:28;;;;;;;2.00;1.70;;;17.50;90.70;;;;;;5014969;28;20281;-67
2022/10/04 05:42:56;;;;;;;4.05;2.17;;;17.50;90.60;;;;;;4998513;28;20225;-66
2022/10/04 05:45:30;;;;;;;2.75;2.20;;;17.50;90.40;;;;;;5032920;28;20187;-66
2022/10/04 05:48:00;;;;;;;3.45;1.90;;;17.50;90.50;;;;;;5015125;28;20663;-66
2022/10/04 05:50:39;;;;;;;4.57;2.38;;;17.50;90.40;;;;;;5031335;28;20293;-66
2022/10/04 05:53:34;;;;;;;4.60;2.20;;;17.50;90.30;;;;;;5014975;28;20183;-66
2022/10/04 05:56:22;;;;;;;4.57;2.08;;;17.50;90.20;;;;;;4998583;28;20188;-66
2022/10/04 05:59:28;;;;;;;3.50;2.05;;;17.50;90.10;;;;;;5014666;28;20226;-66
2022/10/04 06:02:36;;;;;;;2.20;1.75;;;17.50;89.60;;;;;;4998452;28;20245;-66
2022/10/04 06:05:43;;;;;;;5.68;2.20;;;17.50;89.80;;;;;;5014206;28;20201;-65
2022/10/04 06:08:45;;;;;;;3.28;2.45;;;17.50;89.40;;;;;;5000851;28;20183;-66
2022/10/04 06:11:33;;;;;;;3.67;2.03;;;17.50;89.00;;;;;;5014642;28;20207;-66
2022/10/04 06:14:37;;;;;;;3.35;2.50;;;17.50;89.30;;;;;;5014448;28;20285;-66
2022/10/04 06:17:29;;;;;;;3.20;2.30;;;17.50;89.20;;;;;;5014789;28;20214;-66
2022/10/04 06:20:21;;;;;;;5.13;1.98;;;17.50;88.60;;;;;;4997887;28;20278;-66
2022/10/04 06:22:56;;;;;;;3.25;2.30;;;17.50;88.60;;;;;;5017698;28;20238;-66
2022/10/04 06:25:35;;;;;;;2.72;2.35;;;17.50;88.60;;;;;;5014470;28;20185;-66
2022/10/04 06:28:26;;;;;;;2.88;2.30;;;17.50;88.30;;;;;;5014546;28;20194;-66
2022/10/04 06:31:41;;;;;;;3.20;1.85;;;17.50;88.20;;;;;;5030536;28;20691;-66
2022/10/04 06:34:34;;;;;;;2.05;1.75;;;17.50;87.90;;;;;;5014337;28;20187;-66
2022/10/04 06:37:25;;;;;;;2.63;1.90;;;17.50;87.90;;;;;;4997917;28;20191;-66
2022/10/04 06:40:42;;;;;;;2.38;2.10;;;17.50;88.00;;;;;;5014130;28;20229;-66
2022/10/04 06:43:45;;;;;;;5.47;2.30;;;17.50;87.60;;;;;;5030014;28;20215;-66
2022/10/04 06:46:36;;;;;;;3.08;1.77;;;17.50;87.40;;;;;;5014312;28;20195;-66
2022/10/04 06:50:02;;;;;;;3.28;2.35;;;17.50;87.50;;;;;;5030482;28;20188;-66
2022/10/04 06:53:17;;;;;;;2.22;1.98;;;17.50;87.30;;;;;;4932054;29;20203;-66
2022/10/04 06:56:39;;;;;;;2.15;1.95;;;17.50;87.20;;;;;;4916453;29;20187;-66
2022/10/04 06:59:26;;;;;;;3.00;1.73;;;17.50;87.20;;;;;;5013655;28;20194;-66
2022/10/04 07:02:04;;;;;;;2.25;1.88;;;17.50;87.10;;;;;;5013990;28;20242;-67
2022/10/04 07:05:04;;;;;;;5.18;2.10;;;17.50;87.00;;;;;;5013903;28;20195;-66
2022/10/04 07:07:39;;;;;;;3.00;1.80;;;17.60;87.00;;;;;;5013789;28;20191;-66
2022/10/04 07:10:31;;;;;;;2.10;1.80;;;17.50;86.80;;;;;;5013897;28;20270;-66
2022/10/04 07:13:11;;;;;;;2.45;1.83;;;17.60;87.00;;;;;;5013956;28;20199;-66
2022/10/04 07:15:58;;;;;;;3.38;2.47;;;17.60;86.80;;;;;;5013718;28;20654;-66
2022/10/04 07:18:34;;;;;;;4.00;2.00;;;17.60;86.70;;;;;;5030616;28;20191;-66
2022/10/04 07:21:14;;;;;;;2.45;1.75;;;17.60;86.50;;;;;;5030017;28;20356;-66
2022/10/04 07:24:02;;;;;;;4.03;2.10;;;17.60;86.50;;;;;;5013905;28;20203;-66
2022/10/04 07:26:49;;;;;;;6.20;2.20;;;17.60;86.50;;;;;;5031453;28;20183;-66
2022/10/04 07:29:20;;;;;;;3.05;1.80;;;17.50;86.50;;;;;;5013632;28;20213;-66
2022/10/04 07:32:12;;;;;;;2.65;1.75;;;17.60;86.50;;;;;;5013914;28;20592;-65
2022/10/04 07:34:53;;;;;;;2.08;1.60;;;17.60;86.40;;;;;;5030170;28;20175;-66
2022/10/04 07:37:21;;;;;;;2.38;1.92;;;17.60;86.20;;;;;;5013742;28;20194;-66
2022/10/04 07:40:29;;;;;;;2.95;1.80;;;17.60;86.10;;;;;;5013933;28;20188;-66
2022/10/04 07:43:13;;;;;;;3.17;2.30;;;17.60;86.10;;;;;;5029846;28;20238;-66
2022/10/04 07:45:41;;;;;;;1.88;1.70;;;17.60;86.10;;;;;;5031315;28;20181;-66
2022/10/04 07:48:22;;;;;;;1.98;1.60;;;17.60;86.20;;;;;;5013527;28;20225;-66
2022/10/04 07:51:08;;;;;;;4.35;2.13;;;17.60;86.20;;;;;;4996881;28;20203;-66
2022/10/04 07:53:50;;;;;;;2.25;1.80;;;17.60;86.20;;;;;;4997132;28;20187;-66
2022/10/04 07:56:44;;;;;;;2.28;1.65;;;17.60;86.00;;;;;;5000298;28;20188;-66
2022/10/04 07:59:49;;;;;;;2.55;1.80;;;17.60;85.90;;;;;;5016814;28;20195;-66
2022/10/04 08:02:19;;;;;;;2.30;2.00;;;17.60;86.10;;;;;;5000645;28;20211;-66
2022/10/04 08:05:14;;;;;;;1.88;1.67;;;17.60;86.00;;;;;;5000590;28;20188;-67
2022/10/04 08:07:59;;;;;;;1.50;1.40;;;17.60;85.80;;;;;;5020321;28;20258;-66
2022/10/04 08:13:34;;;;;;;2.05;1.70;;;17.60;85.80;;;;;;5095048;28;20283;-69
2022/10/04 08:16:16;;;;;;;2.22;1.63;;;17.60;86.60;;;;;;5058173;28;20201;-69
2022/10/04 08:19:05;;;;;;;2.10;1.80;;;17.70;85.80;;;;;;5093411;28;20576;-68
2022/10/04 08:21:51;;;;;;;1.77;1.60;;;17.60;86.50;;;;;;5089876;28;20235;-69
2022/10/04 08:24:57;;;;;;;1.77;1.67;;;17.60;85.60;;;;;;5072999;28;20181;-69
2022/10/04 08:29:41;;;;;;;1.60;1.50;;;17.60;85.70;;;;;;5056048;28;20331;-69
2022/10/04 08:30:47;;;;;;;2.05;1.88;;;17.70;85.70;;;;;;5073921;28;20314;-69
2022/10/04 08:34:05;;;;;;;2.08;1.90;;;17.70;85.70;;;;;;5072893;28;20186;-70
2022/10/04 08:37:12;;;;;;;1.70;1.60;;;17.60;85.50;;;;;;5068479;28;20197;-69
2022/10/04 08:40:13;;;;;;;2.53;1.85;;;17.70;85.70;;;;;;5089385;28;20235;-70
2022/10/04 08:43:26;;;;;;;1.80;1.70;;;17.70;85.60;;;;;;5063832;28;20266;-69
2022/10/04 08:46:12;;;;;;;1.40;1.30;;;17.70;85.60;;;;;;5089648;28;20182;-69
2022/10/04 08:48:59;;;;;;;1.73;1.63;;;17.70;85.60;;;;;;5089407;28;20192;-69
2022/10/04 08:52:09;;;;;;;1.70;1.60;;;17.70;85.50;;;;;;5072753;28;20213;-70
2022/10/04 08:55:33;;;;;;;1.55;1.45;;;17.70;85.50;;;;;;5089289;28;20224;-69
2022/10/04 08:58:36;;;;;;;2.55;1.70;;;17.70;85.20;;;;;;5089473;28;20303;-69
2022/10/04 09:01:50;;;;;;;2.08;1.90;;;17.70;85.30;;;;;;5088890;28;20232;-69
2022/10/04 09:05:13;;;;;;;1.40;1.30;;;17.70;85.30;;;;;;5064025;28;20201;-70
2022/10/04 09:08:08;;;;;;;2.95;1.60;;;17.70;85.30;;;;;;5072178;28;20220;-70
2022/10/04 09:10:55;;;;;;;3.22;1.63;;;17.70;85.80;;;;;;5055811;28;20194;-69
2022/10/04 09:14:03;;;;;;;1.92;1.52;;;17.80;85.80;;;;;;5072680;28;20181;-70
2022/10/04 09:17:06;;;;;;;1.92;1.58;;;17.70;85.70;;;;;;5072746;28;20178;-70
2022/10/04 09:20:08;;;;;;;1.80;1.70;;;17.80;86.50;;;;;;5055530;28;20260;-69
2022/10/04 09:22:58;;;;;;;2.08;1.77;;;17.80;87.10;;;;;;5089251;28;20221;-70
2022/10/04 09:25:58;;;;;;;1.67;1.48;;;17.80;88.70;;;;;;5072338;28;21161;-70
2022/10/04 09:29:16;;;;;;;2.20;1.70;;;17.90;90.80;;;;;;5055744;28;20184;-69
2022/10/04 09:32:00;;;;;;;2.17;1.98;;;17.80;91.80;;;;;;5089079;28;20205;-71
2022/10/04 09:34:57;;;;;;;3.53;1.98;;;17.90;93.50;;;;;;5088773;28;20661;-70
2022/10/04 09:37:38;;;;;;;4.28;2.33;;;17.90;94.60;;;;;;5089245;28;20189;-70
2022/10/04 09:41:13;;;;;;;4.03;2.30;;;17.90;95.70;;;;;;5071870;28;20196;-70
2022/10/04 09:44:07;;;;;;;3.72;2.20;;;17.90;97.20;;;;;;5065935;28;20221;-69
2022/10/04 09:46:51;;;;;;;2.53;1.95;;;17.90;98.50;;;;;;5072038;28;20224;-69
2022/10/04 09:50:06;;;;;;;2.70;1.90;;;17.90;98.60;;;;;;5059253;28;20664;-69
2022/10/04 09:52:56;;;;;;;2.70;2.03;;;18.00;98.90;;;;;;5047592;28;20218;-70
2022/10/04 09:56:26;;;;;;;2.42;1.95;;;18.00;98.40;;;;;;5051872;28;20244;-70
2022/10/04 09:59:43;;;;;;;3.15;1.83;;;18.00;98.60;;;;;;5052068;28;20190;-70
2022/10/04 10:02:58;;;;;;;3.92;1.80;;;18.00;99.10;;;;;;5052805;28;20356;-70
2022/10/04 10:05:43;;;;;;;3.47;1.90;;;18.00;98.40;;;;;;5061344;28;20192;-70
2022/10/04 10:08:41;;;;;;;2.15;1.85;;;18.00;98.70;;;;;;5055016;28;20177;-69
2022/10/04 10:14:59;;;;;;;2.47;1.75;;;18.00;98.30;;;;;;5061234;28;20272;-70
2022/10/04 10:17:38;;;;;;;3.08;1.55;;;18.00;98.10;;;;;;5067871;28;20191;-70
2022/10/04 10:20:30;;;;;;;4.25;1.88;;;18.00;97.90;;;;;;5051966;28;20170;-69
2022/10/04 10:23:26;;;;;;;3.85;1.70;;;18.00;97.70;;;;;;5042588;28;20287;-69
2022/10/04 10:26:25;;;;;;;2.75;1.63;;;18.10;97.60;;;;;;5051340;28;20197;-70
2022/10/04 10:29:23;;;;;;;3.90;1.70;;;18.10;97.50;;;;;;5085165;28;20277;-69
2022/10/04 10:32:34;;;;;;;3.22;1.65;;;18.10;97.50;;;;;;5066622;28;20324;-70
2022/10/04 10:35:19;;;;;;;2.70;1.55;;;18.10;97.60;;;;;;5065460;28;20170;-70
2022/10/04 10:38:09;;;;;;;1.90;1.38;;;18.10;97.40;;;;;;5083156;28;20210;-70
2022/10/04 10:40:44;;;;;;;4.43;1.98;;;18.10;97.30;;;;;;5050889;28;20197;-70
2022/10/04 10:43:40;;;;;;;3.05;1.30;;;18.10;97.10;;;;;;5034231;28;20221;-70
2022/10/04 10:47:00;;;;;;;4.70;1.80;;;18.10;97.50;;;;;;5034690;28;20194;-69
2022/10/04 10:50:01;;;;;;;3.83;1.67;;;18.10;96.90;;;;;;5054009;28;20194;-70
2022/10/04 10:53:31;;;;;;;5.95;1.80;;;18.10;96.80;;;;;;5062665;28;20203;-69
2022/10/04 10:56:28;;;;;;;2.17;1.50;;;18.10;97.20;;;;;;5026019;28;20194;-70
2022/10/04 10:59:25;;;;;;;3.22;1.90;;;18.10;96.60;;;;;;5071475;28;20225;-71
2022/10/04 11:02:54;;;;;;;3.88;1.80;;;18.10;97.00;;;;;;5054046;28;20214;-70
2022/10/04 11:06:02;;;;;;;1.58;1.40;;;18.10;97.00;;;;;;5049967;28;20235;-70
2022/10/04 11:09:24;;;;;;;3.28;1.55;;;18.10;96.80;;;;;;5033106;28;20328;-71
2022/10/04 11:12:51;;;;;;;2.60;1.88;;;18.10;96.60;;;;;;5054042;28;20253;-70
2022/10/04 11:15:48;;;;;;;2.13;1.52;;;18.20;96.50;;;;;;5070852;28;20204;-70
2022/10/04 11:19:10;;;;;;;3.20;1.55;;;18.20;96.30;;;;;;5087771;28;20283;-68
2022/10/04 11:22:58;;;;;;;2.92;1.92;;;18.20;96.50;;;;;;5070702;28;20216;-70
2022/10/04 11:25:43;;;;;;;4.25;1.83;;;18.20;96.40;;;;;;5023660;28;20241;-71
2022/10/04 11:28:51;;;;;;;4.38;1.70;;;18.20;96.50;;;;;;5054383;28;20186;-70
2022/10/04 11:31:54;;;;;;;5.00;2.05;;;18.10;96.40;;;;;;5054068;28;20367;-71
2022/10/04 11:35:35;;;;;;;5.70;2.03;;;18.20;96.50;;;;;;5074859;28;20220;-70
2022/10/04 11:38:10;;;;;;;2.25;1.35;;;18.20;96.50;;;;;;5075625;28;20274;-70
2022/10/04 11:41:09;;;;;;;6.55;1.95;;;18.20;96.10;;;;;;5090931;28;20189;-70
2022/10/04 11:44:08;;;;;;;2.42;1.67;;;18.20;96.00;;;;;;5074333;28;20217;-70
2022/10/04 11:46:47;;;;;;;3.85;1.60;;;18.20;96.30;;;;;;5057984;28;20196;-70
2022/10/04 11:49:34;;;;;;;3.50;1.85;;;18.20;96.10;;;;;;5074424;28;20234;-70
2022/10/04 11:52:57;;;;;;;6.13;1.63;;;18.20;95.70;;;;;;5074253;28;20238;-70
2022/10/04 11:55:52;;;;;;;4.78;1.85;;;18.20;94.90;;;;;;5053656;28;20198;-71
2022/10/04 11:58:53;;;;;;;4.22;1.73;;;18.20;95.20;;;;;;5075102;28;20173;-71
2022/10/04 12:01:49;;;;;;;4.50;1.50;;;18.20;94.90;;;;;;5049400;28;20210;-71
2022/10/04 12:05:01;;;;;;;4.75;1.70;;;18.20;94.80;;;;;;5054751;28;20190;-70
2022/10/04 12:08:10;;;;;;;6.20;1.60;;;18.20;95.00;;;;;;5053716;28;20202;-70
2022/10/04 12:10:40;;;;;;;5.05;1.77;;;18.30;95.10;;;;;;5054741;28;20178;-70
2022/10/04 12:14:09;;;;;;;8.25;1.80;;;18.30;94.50;;;;;;5053963;28;20654;-71
2022/10/04 12:17:07;;;;;;;3.88;1.88;;;18.30;94.90;;;;;;5000966;28;20684;-71
2022/10/04 12:20:07;;;;;;;3.67;2.03;;;18.30;95.10;;;;;;5053138;28;20182;-71
2022/10/04 12:23:02;;;;;;;2.63;1.45;;;18.30;94.90;;;;;;5053024;28;20357;-71
2022/10/04 12:26:08;;;;;;;4.53;2.00;;;18.30;94.50;;;;;;5052994;28;20665;-71
2022/10/04 12:28:53;;;;;;;2.67;1.88;;;18.30;94.50;;;;;;5053172;28;20190;-71
2022/10/04 12:31:33;;;;;;;6.82;1.95;;;18.30;94.70;;;;;;5035902;28;20212;-71
2022/10/04 12:34:16;;;;;;;6.40;1.70;;;18.30;94.70;;;;;;5053023;28;20217;-71
2022/10/04 12:37:14;;;;;;;3.10;1.58;;;18.30;93.80;;;;;;5052822;28;20204;-71
2022/10/04 12:40:14;;;;;;;5.00;1.80;;;18.30;94.20;;;;;;5052447;28;20206;-71
2022/10/04 12:43:37;;;;;;;2.58;1.50;;;18.30;94.40;;;;;;5051460;28;20218;-71
2022/10/04 12:46:30;;;;;;;3.03;1.52;;;18.30;94.50;;;;;;5036178;28;20194;-71
2022/10/04 12:49:25;;;;;;;5.25;1.40;;;18.30;94.00;;;;;;5052518;28;20186;-71
2022/10/04 12:52:22;;;;;;;4.80;1.60;;;18.30;94.20;;;;;;5052538;28;20220;-71
2022/10/04 12:55:44;;;;;;;3.15;1.50;;;18.30;94.10;;;;;;5052615;28;20193;-71
2022/10/04 12:58:39;;;;;;;2.40;1.42;;;18.30;94.00;;;;;;5053572;28;20197;-71
2022/10/04 13:02:06;;;;;;;3.00;1.70;;;18.30;94.00;;;;;;5035675;28;20210;-71
2022/10/04 13:04:44;;;;;;;1.90;1.27;;;18.30;94.00;;;;;;5007283;28;20241;-71
2022/10/04 13:07:16;;;;;;;3.83;1.60;;;18.30;93.40;;;;;;5036124;28;20197;-70
2022/10/04 13:10:12;;;;;;;2.17;1.27;;;18.30;93.70;;;;;;5036266;28;20178;-70
2022/10/04 13:13:40;;;;;;;4.55;1.30;;;18.30;93.40;;;;;;5052767;28;20276;-71
2022/10/04 13:16:34;;;;;;;3.15;1.70;;;18.30;93.50;;;;;;5044504;28;20206;-71
2022/10/04 13:19:36;;;;;;;5.20;1.58;;;18.30;93.50;;;;;;5054126;28;20166;-71
2022/10/04 13:22:34;;;;;;;2.72;1.35;;;18.30;94.00;;;;;;5028255;28;20225;-71
2022/10/04 13:25:25;;;;;;;7.15;1.70;;;18.30;94.60;;;;;;5052519;28;20232;-71
2022/10/04 13:28:22;;;;;;;4.70;1.50;;;18.40;94.20;;;;;;5052413;28;20198;-71
2022/10/04 13:31:04;;;;;;;3.70;1.75;;;18.40;94.30;;;;;;5053261;28;20175;-71
2022/10/04 13:34:06;;;;;;;3.42;1.55;;;18.40;94.70;;;;;;5062970;28;20170;-71
2022/10/04 13:36:53;;;;;;;5.38;2.08;;;18.40;95.10;;;;;;5072183;28;20182;-71
2022/10/04 13:39:38;;;;;;;2.92;1.73;;;18.40;94.40;;;;;;5072069;28;20166;-70
2022/10/04 13:42:20;;;;;;;4.30;1.50;;;18.40;94.60;;;;;;5072251;28;20213;-71
2022/10/04 13:45:19;;;;;;;3.60;1.42;;;18.40;94.50;;;;;;5088839;28;20193;-71
2022/10/04 13:48:09;;;;;;;5.22;1.60;;;18.40;94.70;;;;;;5071858;28;20185;-71
2022/10/04 13:51:05;;;;;;;5.22;1.50;;;18.40;94.70;;;;;;5071681;28;20178;-70
2022/10/04 13:57:28;;;;;;;2.42;1.48;;;18.40;94.50;;;;;;5073237;28;20170;-71
2022/10/04 14:00:15;;;;;;;3.80;1.65;;;18.40;94.60;;;;;;5071652;28;20182;-70
2022/10/04 14:02:52;;;;;;;6.88;1.50;;;18.40;94.90;;;;;;5070986;28;20220;-71
2022/10/04 14:05:39;;;;;;;4.25;1.67;;;18.40;94.50;;;;;;5054929;28;20257;-71
2022/10/04 14:08:24;;;;;;;4.65;1.70;;;18.40;94.10;;;;;;5054920;28;20180;-71
2022/10/04 14:11:26;;;;;;;2.95;1.40;;;18.40;94.40;;;;;;5056615;28;20201;-72
2022/10/04 14:14:30;;;;;;;4.10;1.40;;;18.40;94.60;;;;;;5059606;22;20237;-66
2022/10/04 14:17:22;;;;;;;9.77;1.73;;;18.40;94.40;;;;;;5053397;28;20206;-65
2022/10/04 14:19:59;;;;;;;11.25;2.25;;;18.40;93.80;;;;;;5027987;28;20737;-65
2022/10/04 14:22:42;;;;;;;11.32;2.33;;;18.40;94.10;;;;;;5011648;28;20219;-66
2022/10/04 14:25:49;;;;;;;7.70;2.17;;;18.40;94.40;;;;;;4995171;28;20180;-66
2022/10/04 14:29:01;;;;;;;12.88;2.28;;;18.40;94.60;;;;;;4986866;28;20191;-66
2022/10/04 14:31:45;;;;;;;8.77;3.08;;;18.40;94.30;;;;;;5011714;28;20183;-65
2022/10/04 14:35:05;;;;;;;11.73;3.20;;;18.40;94.40;;;;;;5011935;28;20211;-66
2022/10/04 14:37:46;;;;;;;10.63;2.92;;;18.40;94.80;;;;;;4995192;28;20192;-66
2022/10/04 14:40:32;;;;;;;12.55;2.88;;;18.40;94.10;;;;;;4995332;28;20180;-66
2022/10/04 14:43:30;;;;;;;15.85;3.63;;;18.50;93.90;;;;;;4994604;28;20234;-65
2022/10/04 14:46:13;;;;;;;16.55;3.63;;;18.40;94.00;;;;;;4995237;28;20188;-66
2022/10/04 14:49:10;;;;;;;24.70;4.68;;;18.50;94.60;;;;;;4995496;28;20172;-65
2022/10/04 14:52:19;;;;;;;24.00;4.40;;;18.40;94.40;;;;;;5011384;28;20243;-66